Time;durP1;ratioP1;P1;durP2;ratioP2;P2;SDS_P1;SDS_P2;PMS_P1;PMS_P2;Temp;Humidity;BMP_temperature;BMP_pressure;BME280_temperature;BME280_humidity;BME280_pressure;Samples;Min_cycle;Max_cycle;Signal;HPM_P1;HPM_P2
2023/08/05 00:00:10;;;;;;;9.50;5.43;;;13.90;99.90;;;;;;5060693;28;20182;-54
2023/08/05 00:02:35;;;;;;;8.20;5.90;;;13.90;99.90;;;;;;5061757;28;20899;-57
2023/08/05 00:05:01;;;;;;;8.03;5.47;;;13.90;99.90;;;;;;5063146;28;20502;-57
2023/08/05 00:07:26;;;;;;;12.50;5.80;;;13.90;99.90;;;;;;5068118;28;20177;-56
2023/08/05 00:09:52;;;;;;;9.13;4.80;;;13.90;99.90;;;;;;5056354;28;20171;-56
2023/08/05 00:12:18;;;;;;;5.77;4.70;;;13.90;99.90;;;;;;5060556;28;20202;-57
2023/08/05 00:14:43;;;;;;;12.40;4.93;;;13.90;99.90;;;;;;5065266;28;20540;-57
2023/08/05 00:17:09;;;;;;;12.10;5.40;;;13.90;99.90;;;;;;5058507;28;20190;-57
2023/08/05 00:19:35;;;;;;;10.70;5.47;;;13.90;99.90;;;;;;5059667;28;20186;-56
2023/08/05 00:22:01;;;;;;;10.97;4.80;;;13.90;99.90;;;;;;5062271;28;20548;-56
2023/08/05 00:24:27;;;;;;;8.43;5.20;;;13.90;99.90;;;;;;5065977;28;20230;-56
2023/08/05 00:26:52;;;;;;;8.30;5.90;;;13.90;99.90;;;;;;5063520;28;20522;-55
2023/08/05 00:29:18;;;;;;;10.40;5.23;;;13.90;99.90;;;;;;5063112;28;20627;-56
2023/08/05 00:31:43;;;;;;;10.10;6.40;;;13.90;99.90;;;;;;5062365;28;20241;-56
2023/08/05 00:34:09;;;;;;;11.60;6.30;;;13.90;99.90;;;;;;5063903;28;20183;-56
2023/08/05 00:36:34;;;;;;;8.30;6.10;;;13.90;99.90;;;;;;5067877;28;20182;-55
2023/08/05 00:39:00;;;;;;;7.83;5.70;;;13.90;99.90;;;;;;5061791;28;20198;-56
2023/08/05 00:41:25;;;;;;;9.80;5.83;;;13.90;99.90;;;;;;5057642;28;20189;-57
2023/08/05 00:43:51;;;;;;;8.40;5.43;;;13.90;99.90;;;;;;5067333;28;20210;-56
2023/08/05 00:46:18;;;;;;;7.00;5.30;;;13.90;99.90;;;;;;5065582;28;20996;-56
2023/08/05 00:48:43;;;;;;;11.47;5.93;;;13.90;99.90;;;;;;5058470;28;20235;-57
2023/08/05 00:51:10;;;;;;;12.50;5.60;;;14.00;99.90;;;;;;5059401;28;20440;-57
2023/08/05 00:53:37;;;;;;;13.93;6.50;;;13.90;99.90;;;;;;5066691;28;20226;-57
2023/08/05 00:56:03;;;;;;;11.47;5.30;;;13.90;99.90;;;;;;5056772;28;20436;-57
2023/08/05 00:58:31;;;;;;;7.07;5.00;;;13.90;99.90;;;;;;5057993;28;20471;-56
2023/08/05 01:00:57;;;;;;;8.00;5.90;;;13.90;99.90;;;;;;5065997;28;20186;-56
2023/08/05 01:03:23;;;;;;;10.40;5.17;;;13.90;99.90;;;;;;5064498;28;20460;-56
2023/08/05 01:05:51;;;;;;;8.30;5.73;;;13.90;99.90;;;;;;5059485;28;20664;-56
2023/08/05 01:08:19;;;;;;;11.17;5.30;;;13.90;99.90;;;;;;5059605;28;20650;-57
2023/08/05 01:10:44;;;;;;;7.37;5.33;;;13.80;99.90;;;;;;5061680;28;20477;-55
2023/08/05 01:13:10;;;;;;;7.23;5.30;;;13.80;99.90;;;;;;5062494;28;20989;-56
2023/08/05 01:15:36;;;;;;;8.67;5.63;;;13.80;99.90;;;;;;5062147;28;20628;-56
2023/08/05 01:18:04;;;;;;;11.27;5.40;;;13.90;99.90;;;;;;5065503;28;20182;-56
2023/08/05 01:20:39;;;;;;;7.70;5.70;;;13.90;99.90;;;;;;5058879;28;20272;-57
2023/08/05 01:23:12;;;;;;;7.67;4.93;;;13.90;99.90;;;;;;5061273;28;21036;-55
2023/08/05 01:25:39;;;;;;;7.97;5.30;;;13.90;99.90;;;;;;5061278;28;20937;-56
2023/08/05 01:28:07;;;;;;;9.87;5.40;;;13.90;99.90;;;;;;5059345;28;20436;-56
2023/08/05 01:30:33;;;;;;;8.30;5.63;;;13.80;99.90;;;;;;5065046;28;20536;-56
2023/08/05 01:33:03;;;;;;;7.43;5.30;;;13.90;99.90;;;;;;5058128;28;21032;-56
2023/08/05 01:35:29;;;;;;;8.07;4.90;;;13.90;99.90;;;;;;5060917;28;20426;-56
2023/08/05 01:37:55;;;;;;;8.07;5.20;;;13.90;99.90;;;;;;5061229;28;20459;-56
2023/08/05 01:40:20;;;;;;;7.33;5.60;;;13.80;99.90;;;;;;5065383;28;20694;-56
2023/08/05 01:42:46;;;;;;;8.27;5.17;;;13.80;99.90;;;;;;5058495;28;20893;-56
2023/08/05 01:45:11;;;;;;;8.93;5.50;;;13.90;99.90;;;;;;5062279;28;20210;-56
2023/08/05 01:47:37;;;;;;;10.27;5.83;;;13.80;99.90;;;;;;5061503;28;20206;-56
2023/08/05 01:50:03;;;;;;;8.20;5.40;;;13.80;99.90;;;;;;5056514;28;20179;-55
2023/08/05 01:52:29;;;;;;;11.53;5.63;;;13.80;99.90;;;;;;5057086;28;20190;-57
2023/08/05 01:54:54;;;;;;;9.40;5.17;;;13.80;99.90;;;;;;5057890;28;20217;-58
2023/08/05 01:57:20;;;;;;;8.13;5.73;;;13.90;99.90;;;;;;5058140;28;20186;-58
2023/08/05 01:59:45;;;;;;;8.50;5.50;;;13.90;99.90;;;;;;5055586;28;20178;-58
2023/08/05 02:02:11;;;;;;;7.90;4.90;;;13.90;99.90;;;;;;5056591;28;20285;-57
2023/08/05 02:04:36;;;;;;;10.90;5.93;;;13.90;99.90;;;;;;5051068;28;20194;-57
2023/08/05 02:07:02;;;;;;;7.60;5.50;;;13.90;99.90;;;;;;5059123;28;20269;-56
2023/08/05 02:09:28;;;;;;;8.17;5.47;;;13.90;99.90;;;;;;5058813;28;20224;-56
2023/08/05 02:11:53;;;;;;;8.13;5.40;;;13.90;99.90;;;;;;5058829;28;20225;-57
2023/08/05 02:14:19;;;;;;;7.20;5.00;;;13.90;99.90;;;;;;5069247;28;20409;-56
2023/08/05 02:16:44;;;;;;;9.30;5.50;;;13.90;99.90;;;;;;5067996;28;20178;-57
2023/08/05 02:19:10;;;;;;;7.57;5.50;;;13.90;99.90;;;;;;5066885;28;20801;-56
2023/08/05 02:21:36;;;;;;;12.37;6.17;;;13.90;99.90;;;;;;5052856;28;20681;-57
2023/08/05 02:24:01;;;;;;;9.43;5.80;;;13.90;99.90;;;;;;5066321;28;20630;-56
2023/08/05 02:26:27;;;;;;;8.43;5.80;;;13.90;99.90;;;;;;5062733;28;20194;-56
2023/08/05 02:28:53;;;;;;;15.43;5.80;;;13.90;99.90;;;;;;5063947;28;20264;-58
2023/08/05 02:31:18;;;;;;;9.53;5.90;;;13.90;99.90;;;;;;5069935;28;20204;-57
2023/08/05 02:33:44;;;;;;;10.90;5.33;;;13.90;99.90;;;;;;5068362;28;20565;-57
2023/08/05 02:36:10;;;;;;;11.63;6.30;;;13.90;99.90;;;;;;5066522;28;20547;-57
2023/08/05 02:38:35;;;;;;;10.10;6.50;;;13.90;99.90;;;;;;5067674;28;20525;-57
2023/08/05 02:41:05;;;;;;;8.83;6.10;;;13.90;99.90;;;;;;5065171;28;20190;-56
2023/08/05 02:43:31;;;;;;;10.40;6.33;;;13.80;99.90;;;;;;5056490;28;20213;-57
2023/08/05 02:45:57;;;;;;;9.53;6.30;;;13.80;99.90;;;;;;5070325;28;20425;-59
2023/08/05 02:48:24;;;;;;;15.50;6.47;;;13.80;99.90;;;;;;5065787;28;20170;-58
2023/08/05 02:50:50;;;;;;;11.40;6.30;;;13.80;99.90;;;;;;5064816;28;20420;-58
2023/08/05 02:53:16;;;;;;;10.03;5.83;;;13.80;99.90;;;;;;5075297;28;20441;-56
2023/08/05 02:55:42;;;;;;;10.20;5.67;;;13.80;99.90;;;;;;5056419;28;20851;-58
2023/08/05 02:58:08;;;;;;;8.30;5.60;;;13.80;99.90;;;;;;5066113;28;20452;-57
2023/08/05 03:00:34;;;;;;;9.37;5.30;;;13.80;99.90;;;;;;5060378;28;20171;-57
2023/08/05 03:02:59;;;;;;;8.07;5.80;;;13.80;99.90;;;;;;5069403;28;20237;-58
2023/08/05 03:05:25;;;;;;;11.93;5.90;;;13.80;99.90;;;;;;5067033;28;20585;-56
2023/08/05 03:07:51;;;;;;;15.67;7.00;;;13.80;99.90;;;;;;5063068;28;20175;-55
2023/08/05 03:10:17;;;;;;;17.80;6.00;;;13.80;99.90;;;;;;5055555;28;20295;-56
2023/08/05 03:12:42;;;;;;;10.53;6.30;;;13.90;99.90;;;;;;5063618;28;20195;-56
2023/08/05 03:15:08;;;;;;;13.10;5.90;;;13.90;99.90;;;;;;5067818;28;20665;-57
2023/08/05 03:17:35;;;;;;;8.73;5.73;;;13.90;99.90;;;;;;5068964;28;20258;-56
2023/08/05 03:20:05;;;;;;;8.83;6.10;;;14.00;99.90;;;;;;5060820;28;20429;-56
2023/08/05 03:22:31;;;;;;;7.67;5.60;;;13.90;99.90;;;;;;5060082;28;20464;-56
2023/08/05 03:24:57;;;;;;;6.97;5.40;;;14.00;99.90;;;;;;5059065;28;20472;-56
2023/08/05 03:27:23;;;;;;;8.80;5.80;;;13.90;99.90;;;;;;5068202;28;20439;-56
2023/08/05 03:29:48;;;;;;;7.90;5.20;;;14.00;99.90;;;;;;5067327;28;20427;-58
2023/08/05 03:32:14;;;;;;;11.70;5.43;;;14.00;99.90;;;;;;5070254;28;20204;-57
2023/08/05 03:34:40;;;;;;;5.80;5.10;;;14.00;99.90;;;;;;5061519;28;20178;-56
2023/08/05 03:37:05;;;;;;;12.23;5.80;;;14.00;99.90;;;;;;5059935;28;20292;-56
2023/08/05 03:39:31;;;;;;;10.13;6.20;;;14.00;99.90;;;;;;5057317;28;20171;-55
2023/08/05 03:41:56;;;;;;;9.33;6.40;;;14.00;99.90;;;;;;5067617;28;20186;-55
2023/08/05 03:44:22;;;;;;;9.63;6.20;;;14.00;99.90;;;;;;5055795;28;20340;-57
2023/08/05 03:46:48;;;;;;;10.63;6.10;;;14.00;99.90;;;;;;5059067;28;20175;-53
2023/08/05 03:49:13;;;;;;;17.07;7.20;;;14.00;99.90;;;;;;5061979;28;20170;-57
2023/08/05 03:51:39;;;;;;;11.70;6.27;;;14.00;99.90;;;;;;5062538;28;20175;-56
2023/08/05 03:54:04;;;;;;;12.33;6.30;;;13.90;99.90;;;;;;5062966;28;20202;-57
2023/08/05 03:56:30;;;;;;;10.47;6.00;;;13.90;99.90;;;;;;5061622;28;20190;-57
2023/08/05 03:58:56;;;;;;;10.20;7.10;;;13.90;99.90;;;;;;5070356;28;20853;-57
2023/08/05 04:01:22;;;;;;;14.10;6.53;;;13.90;99.90;;;;;;5066404;28;20179;-57
2023/08/05 04:03:49;;;;;;;10.77;6.77;;;13.80;99.90;;;;;;5066597;28;20848;-56
2023/08/05 04:06:15;;;;;;;12.67;7.13;;;13.80;99.90;;;;;;5066713;28;20171;-55
2023/08/05 04:08:41;;;;;;;9.47;6.43;;;13.80;99.90;;;;;;5058306;28;20466;-56
2023/08/05 04:11:08;;;;;;;9.67;6.20;;;13.80;99.90;;;;;;5070224;28;20429;-57
2023/08/05 04:13:35;;;;;;;10.53;6.70;;;13.80;99.90;;;;;;5059749;28;20198;-56
2023/08/05 04:16:03;;;;;;;11.87;6.70;;;13.80;99.90;;;;;;5065960;28;20459;-57
2023/08/05 04:18:30;;;;;;;13.00;7.47;;;13.80;99.90;;;;;;5058774;28;20819;-57
2023/08/05 04:20:57;;;;;;;11.07;6.40;;;13.80;99.90;;;;;;5065130;28;20443;-56
2023/08/05 04:23:25;;;;;;;9.87;6.07;;;13.80;99.90;;;;;;5064639;28;20451;-56
2023/08/05 04:25:50;;;;;;;12.83;6.40;;;13.70;99.90;;;;;;5067389;28;20456;-56
2023/08/05 04:28:16;;;;;;;9.57;6.70;;;13.80;99.90;;;;;;5065861;28;20467;-56
2023/08/05 04:30:42;;;;;;;10.37;6.10;;;13.70;99.90;;;;;;5064180;28;20205;-57
2023/08/05 04:33:08;;;;;;;14.40;6.43;;;13.80;99.90;;;;;;5068927;28;21233;-57
2023/08/05 04:35:35;;;;;;;14.63;6.10;;;13.80;99.90;;;;;;5069443;28;20171;-56
2023/08/05 04:38:00;;;;;;;11.57;6.47;;;13.80;99.90;;;;;;5071626;28;21062;-55
2023/08/05 04:40:26;;;;;;;7.27;6.27;;;13.80;99.90;;;;;;5062296;28;20507;-56
2023/08/05 04:42:51;;;;;;;11.93;6.97;;;13.70;99.90;;;;;;5065893;28;20198;-57
2023/08/05 04:45:17;;;;;;;8.40;7.20;;;13.70;99.90;;;;;;5062713;28;20970;-56
2023/08/05 04:47:43;;;;;;;11.03;7.00;;;13.70;99.90;;;;;;5072010;28;20257;-55
2023/08/05 04:50:09;;;;;;;11.83;6.70;;;13.70;99.90;;;;;;5067663;28;20217;-56
2023/08/05 04:52:34;;;;;;;11.73;7.20;;;13.70;99.90;;;;;;5058814;28;20588;-56
2023/08/05 04:55:09;;;;;;;9.87;6.93;;;13.70;99.90;;;;;;5069674;28;20501;-59
2023/08/05 04:57:35;;;;;;;12.00;7.50;;;13.70;99.90;;;;;;5065386;28;20189;-56
2023/08/05 05:00:01;;;;;;;15.03;7.30;;;13.80;99.90;;;;;;5064562;28;20524;-54
2023/08/05 05:02:26;;;;;;;11.00;7.27;;;13.80;99.90;;;;;;5066363;28;20555;-57
2023/08/05 05:04:52;;;;;;;13.70;7.40;;;13.80;99.90;;;;;;5063734;28;20628;-55
2023/08/05 05:07:18;;;;;;;11.57;7.57;;;13.80;99.90;;;;;;5074782;28;20196;-56
2023/08/05 05:09:44;;;;;;;9.87;7.43;;;13.80;99.90;;;;;;5068462;28;20166;-56
2023/08/05 05:12:10;;;;;;;13.57;7.40;;;13.80;99.90;;;;;;5063107;28;20476;-56
2023/08/05 05:14:43;;;;;;;8.87;7.00;;;13.80;99.90;;;;;;5062591;28;20182;-56
2023/08/05 05:17:09;;;;;;;10.67;7.53;;;13.80;99.90;;;;;;5064059;28;20468;-57
2023/08/05 05:19:35;;;;;;;11.33;8.00;;;13.80;99.90;;;;;;5061310;28;20434;-56
2023/08/05 05:22:01;;;;;;;11.53;7.60;;;13.80;99.90;;;;;;5059259;28;20452;-56
2023/08/05 05:24:29;;;;;;;13.90;7.77;;;13.80;99.90;;;;;;5065004;28;20198;-56
2023/08/05 05:26:57;;;;;;;12.70;7.80;;;13.80;99.90;;;;;;5067216;28;21168;-56
2023/08/05 05:29:23;;;;;;;18.13;7.70;;;13.80;99.90;;;;;;5067019;28;20436;-56
2023/08/05 05:31:49;;;;;;;12.03;8.27;;;13.80;99.90;;;;;;5064883;28;20442;-54
2023/08/05 05:34:14;;;;;;;10.33;8.10;;;13.80;99.90;;;;;;5065130;28;20435;-57
2023/08/05 05:36:40;;;;;;;10.63;7.90;;;13.80;99.90;;;;;;5067124;28;20210;-57
2023/08/05 05:39:05;;;;;;;11.57;8.63;;;13.80;99.90;;;;;;5059517;28;20277;-57
2023/08/05 05:41:31;;;;;;;13.17;8.27;;;13.80;99.90;;;;;;5062715;28;20888;-55
2023/08/05 05:43:58;;;;;;;12.57;8.90;;;13.90;99.90;;;;;;5061318;28;20279;-56
2023/08/05 05:46:25;;;;;;;14.30;8.80;;;13.90;99.90;;;;;;5059907;28;20262;-57
2023/08/05 05:48:50;;;;;;;15.33;8.43;;;13.90;99.90;;;;;;5057346;28;20879;-57
2023/08/05 05:51:16;;;;;;;18.33;8.80;;;13.90;99.90;;;;;;5059247;28;20523;-57
2023/08/05 05:53:42;;;;;;;13.03;8.50;;;13.90;99.90;;;;;;5059572;28;20202;-57
2023/08/05 05:56:08;;;;;;;19.80;9.20;;;13.90;99.90;;;;;;5063969;28;20570;-57
2023/08/05 05:58:35;;;;;;;13.40;7.73;;;14.00;99.90;;;;;;5058806;28;20444;-56
2023/08/05 06:01:01;;;;;;;10.27;8.13;;;14.00;99.90;;;;;;5065243;28;20258;-56
2023/08/05 06:03:27;;;;;;;11.53;8.00;;;14.00;99.90;;;;;;5059136;28;20512;-57
2023/08/05 06:05:53;;;;;;;10.37;7.30;;;14.10;99.90;;;;;;5060856;28;20429;-59
2023/08/05 06:08:18;;;;;;;14.73;8.03;;;14.10;99.90;;;;;;5062662;28;20182;-56
2023/08/05 06:10:45;;;;;;;11.00;8.00;;;14.10;99.90;;;;;;5056293;28;20208;-57
2023/08/05 06:13:10;;;;;;;16.20;7.70;;;14.20;99.90;;;;;;5055641;28;20187;-57
2023/08/05 06:15:40;;;;;;;12.10;7.87;;;14.20;99.90;;;;;;5059898;28;20770;-57
2023/08/05 06:18:07;;;;;;;12.40;8.03;;;14.20;99.90;;;;;;5057023;28;20205;-58
2023/08/05 06:20:33;;;;;;;12.07;7.10;;;14.30;99.90;;;;;;5055261;28;20524;-56
2023/08/05 06:22:59;;;;;;;11.13;6.63;;;14.40;99.90;;;;;;5062780;28;21044;-57
2023/08/05 06:25:24;;;;;;;11.87;7.60;;;14.50;99.90;;;;;;5055526;28;20206;-56
2023/08/05 06:27:50;;;;;;;9.80;6.97;;;14.60;99.90;;;;;;5062210;28;20193;-57
2023/08/05 06:30:15;;;;;;;9.37;7.63;;;14.70;99.90;;;;;;5056671;28;20240;-57
2023/08/05 06:32:41;;;;;;;9.47;7.03;;;14.70;99.90;;;;;;5055694;28;20211;-57
2023/08/05 06:35:07;;;;;;;11.27;7.00;;;14.70;99.90;;;;;;5062063;28;20288;-57
2023/08/05 06:37:32;;;;;;;10.80;7.80;;;14.70;99.90;;;;;;5062910;28;20201;-55
2023/08/05 06:39:58;;;;;;;10.37;8.17;;;14.70;99.90;;;;;;5059725;28;20179;-57
2023/08/05 06:42:25;;;;;;;12.07;7.40;;;14.70;99.90;;;;;;5058822;28;20257;-57
2023/08/05 06:44:51;;;;;;;9.27;6.30;;;14.80;99.90;;;;;;5060888;28;20247;-56
2023/08/05 06:47:17;;;;;;;13.67;7.10;;;14.90;99.90;;;;;;5060592;28;20425;-55
2023/08/05 06:49:42;;;;;;;8.87;6.77;;;15.10;99.90;;;;;;5061760;28;20599;-57
2023/08/05 06:52:08;;;;;;;12.83;7.63;;;15.10;99.90;;;;;;5063973;28;20201;-59
2023/08/05 06:54:33;;;;;;;12.07;8.07;;;15.10;99.90;;;;;;5061892;28;20647;-56
2023/08/05 06:56:59;;;;;;;8.77;6.40;;;15.10;99.90;;;;;;5062932;28;20179;-56
2023/08/05 06:59:26;;;;;;;9.40;6.77;;;15.10;99.90;;;;;;5065848;28;20187;-57
2023/08/05 07:01:52;;;;;;;12.17;6.90;;;15.10;99.90;;;;;;5062306;28;20203;-57
2023/08/05 07:04:18;;;;;;;13.00;7.80;;;15.20;99.90;;;;;;5059776;28;21033;-55
2023/08/05 07:06:44;;;;;;;11.63;7.53;;;15.20;99.90;;;;;;5062421;28;20579;-57
2023/08/05 07:09:10;;;;;;;8.50;6.50;;;15.30;99.90;;;;;;5059926;28;20186;-58
2023/08/05 07:11:35;;;;;;;8.37;6.70;;;15.40;99.90;;;;;;5061957;28;20201;-57
2023/08/05 07:14:01;;;;;;;14.23;6.73;;;15.50;99.90;;;;;;5064309;28;21081;-56
2023/08/05 07:16:27;;;;;;;9.53;6.87;;;15.50;99.90;;;;;;5062734;28;20707;-55
2023/08/05 07:18:52;;;;;;;13.40;6.97;;;15.50;99.90;;;;;;5057612;28;20183;-58
2023/08/05 07:21:18;;;;;;;10.83;6.70;;;15.40;99.90;;;;;;5046352;28;20740;-58
2023/08/05 07:23:44;;;;;;;9.43;6.53;;;15.40;99.90;;;;;;5055980;28;20218;-60
2023/08/05 07:26:10;;;;;;;13.97;7.20;;;15.50;99.90;;;;;;5058831;28;20667;-60
2023/08/05 07:28:36;;;;;;;10.70;7.30;;;15.50;99.90;;;;;;5044383;28;20239;-60
2023/08/05 07:31:03;;;;;;;11.37;6.43;;;15.40;99.90;;;;;;5051127;28;20183;-59
2023/08/05 07:33:30;;;;;;;10.70;6.80;;;15.40;99.90;;;;;;5054968;28;20243;-59
2023/08/05 07:35:56;;;;;;;11.80;6.30;;;15.40;99.90;;;;;;5057784;28;20432;-60
2023/08/05 07:38:25;;;;;;;9.90;6.60;;;15.40;99.90;;;;;;5056224;28;20440;-59
2023/08/05 07:40:55;;;;;;;11.07;6.13;;;15.50;99.90;;;;;;5054838;28;20435;-61
2023/08/05 07:43:24;;;;;;;15.67;6.10;;;15.60;99.90;;;;;;5055132;28;20999;-59
2023/08/05 07:45:50;;;;;;;10.23;5.83;;;15.80;99.90;;;;;;5051690;28;20421;-60
2023/08/05 07:48:16;;;;;;;6.43;5.53;;;16.00;99.90;;;;;;5055387;28;20844;-59
2023/08/05 07:50:42;;;;;;;10.13;5.93;;;16.10;99.90;;;;;;5051892;28;20428;-58
2023/08/05 07:53:08;;;;;;;10.77;5.97;;;16.30;99.90;;;;;;5055386;28;20187;-61
2023/08/05 07:55:35;;;;;;;7.90;5.53;;;16.30;99.90;;;;;;5057554;28;20185;-60
2023/08/05 07:58:01;;;;;;;8.20;5.87;;;16.30;99.90;;;;;;5052053;28;20189;-60
2023/08/05 08:00:27;;;;;;;9.07;6.33;;;16.50;99.90;;;;;;5049433;28;20513;-56
2023/08/05 08:02:52;;;;;;;10.87;5.83;;;16.50;99.90;;;;;;5052414;28;20464;-60
2023/08/05 08:05:19;;;;;;;8.80;6.43;;;16.40;99.90;;;;;;5056849;28;20468;-56
2023/08/05 08:07:46;;;;;;;5.93;5.13;;;16.40;99.90;;;;;;5060344;28;20183;-59
2023/08/05 08:10:15;;;;;;;8.40;5.37;;;16.40;99.90;;;;;;5056823;28;20433;-58
2023/08/05 08:12:41;;;;;;;8.23;5.50;;;16.50;99.90;;;;;;5063218;28;20553;-59
2023/08/05 08:15:08;;;;;;;9.40;5.40;;;16.50;99.90;;;;;;5054316;28;20474;-59
2023/08/05 08:17:33;;;;;;;5.90;4.87;;;16.40;99.90;;;;;;5060290;28;20420;-58
2023/08/05 08:19:59;;;;;;;7.57;5.60;;;16.40;99.90;;;;;;5050555;28;20451;-60
2023/08/05 08:22:24;;;;;;;9.57;5.10;;;16.40;99.90;;;;;;5056380;28;20213;-59
2023/08/05 08:24:50;;;;;;;7.40;5.00;;;16.40;99.90;;;;;;5046735;28;20669;-59
2023/08/05 08:27:15;;;;;;;9.37;5.13;;;16.50;99.90;;;;;;5051941;28;20177;-58
2023/08/05 08:29:41;;;;;;;5.60;4.57;;;16.50;99.90;;;;;;5051871;28;20733;-59
2023/08/05 08:32:07;;;;;;;6.80;4.93;;;16.50;99.90;;;;;;5051226;28;20293;-60
2023/08/05 08:34:32;;;;;;;9.43;4.40;;;16.60;99.90;;;;;;5053660;28;20178;-58
2023/08/05 08:36:58;;;;;;;9.33;4.90;;;16.80;99.90;;;;;;5057034;28;20271;-57
2023/08/05 08:39:24;;;;;;;6.50;4.50;;;16.90;99.90;;;;;;5056090;28;20201;-58
2023/08/05 08:41:51;;;;;;;5.63;4.50;;;17.00;99.90;;;;;;5051400;28;20261;-57
2023/08/05 08:44:19;;;;;;;6.33;3.60;;;17.10;99.90;;;;;;5050922;28;20209;-57
2023/08/05 08:46:47;;;;;;;7.77;4.20;;;17.20;95.10;;;;;;5055867;28;20467;-59
2023/08/05 08:49:16;;;;;;;6.60;4.33;;;17.30;96.60;;;;;;5051243;28;20437;-59
2023/08/05 08:51:46;;;;;;;4.97;3.60;;;17.40;95.00;;;;;;5058648;28;21032;-56
2023/08/05 08:54:14;;;;;;;7.40;4.40;;;17.50;96.90;;;;;;5043948;28;20440;-57
2023/08/05 08:56:39;;;;;;;5.87;3.57;;;17.60;97.20;;;;;;5051585;28;20520;-59
2023/08/05 08:59:06;;;;;;;6.70;4.20;;;17.80;95.00;;;;;;5047930;28;20943;-60
2023/08/05 09:01:38;;;;;;;7.40;4.20;;;17.90;94.50;;;;;;5050564;28;20170;-60
2023/08/05 09:04:06;;;;;;;6.93;3.80;;;18.10;95.50;;;;;;5051555;28;21192;-58
2023/08/05 09:06:32;;;;;;;19.13;4.13;;;18.30;93.70;;;;;;5053544;28;20471;-59
2023/08/05 09:08:58;;;;;;;4.23;3.83;;;18.50;92.90;;;;;;5050830;28;20599;-60
2023/08/05 09:11:24;;;;;;;3.67;3.37;;;18.70;84.50;;;;;;5053276;28;20436;-60
2023/08/05 09:13:52;;;;;;;7.23;4.10;;;18.70;80.80;;;;;;5053105;28;20195;-60
2023/08/05 09:16:18;;;;;;;5.67;3.70;;;18.70;82.30;;;;;;5052819;28;20178;-60
2023/08/05 09:18:50;;;;;;;4.07;3.60;;;18.80;78.00;;;;;;5052658;28;20514;-60
2023/08/05 09:21:21;;;;;;;6.40;3.60;;;18.90;73.00;;;;;;5051481;28;20202;-60
2023/08/05 09:23:47;;;;;;;6.70;3.30;;;18.90;76.00;;;;;;5053044;28;20464;-60
2023/08/05 09:26:13;;;;;;;4.77;3.10;;;19.00;80.10;;;;;;5049275;28;20437;-61
2023/08/05 09:28:39;;;;;;;3.93;3.33;;;18.90;74.20;;;;;;5048664;28;20183;-61
2023/08/05 09:31:16;;;;;;;7.50;3.50;;;18.80;69.20;;;;;;5052066;28;20185;-59
2023/08/05 09:33:42;;;;;;;4.20;3.17;;;18.50;73.20;;;;;;5049575;28;20277;-61
2023/08/05 09:36:10;;;;;;;5.13;3.40;;;18.40;78.40;;;;;;5059739;28;20421;-63
2023/08/05 09:38:37;;;;;;;8.27;3.63;;;18.30;83.50;;;;;;5052997;28;20979;-62
2023/08/05 09:41:03;;;;;;;4.50;3.37;;;18.30;86.90;;;;;;5056774;28;21224;-58
2023/08/05 09:43:35;;;;;;;6.90;3.40;;;18.40;87.90;;;;;;5059437;28;20453;-61
2023/08/05 09:46:06;;;;;;;7.53;3.60;;;18.40;86.30;;;;;;5058166;28;20439;-61
2023/08/05 09:48:40;;;;;;;3.47;3.17;;;18.50;86.40;;;;;;5056885;28;20535;-56
2023/08/05 09:51:06;;;;;;;6.50;3.47;;;18.60;86.10;;;;;;5056119;28;20437;-56
2023/08/05 09:53:35;;;;;;;5.40;3.37;;;18.70;90.60;;;;;;5055344;28;21018;-58
2023/08/05 09:56:04;;;;;;;12.37;3.47;;;18.90;84.90;;;;;;5056399;28;20818;-60
2023/08/05 09:58:32;;;;;;;5.93;3.80;;;19.10;82.90;;;;;;5069139;28;20423;-61
2023/08/05 10:00:58;;;;;;;4.10;3.53;;;19.20;81.60;;;;;;5063440;28;20432;-60
2023/08/05 10:03:26;;;;;;;5.43;4.00;;;19.40;79.30;;;;;;5066188;28;20479;-61
2023/08/05 10:05:55;;;;;;;5.00;3.30;;;19.60;76.90;;;;;;5062360;28;20559;-61
2023/08/05 10:08:24;;;;;;;4.03;2.83;;;19.70;69.60;;;;;;5057074;28;20433;-59
2023/08/05 10:10:50;;;;;;;6.73;3.70;;;19.60;67.90;;;;;;5066926;28;20424;-59
2023/08/05 10:13:20;;;;;;;6.30;3.63;;;19.50;70.30;;;;;;5056747;28;20537;-59
2023/08/05 10:15:52;;;;;;;6.80;3.43;;;19.60;70.90;;;;;;5064261;28;20421;-60
2023/08/05 10:18:18;;;;;;;3.63;2.90;;;19.60;68.40;;;;;;5061985;28;20441;-59
2023/08/05 10:20:52;;;;;;;3.80;3.20;;;19.50;66.60;;;;;;5061158;28;20413;-58
2023/08/05 10:23:18;;;;;;;3.93;3.33;;;19.40;65.60;;;;;;5065311;28;20447;-59
2023/08/05 10:25:49;;;;;;;4.20;3.20;;;19.30;62.60;;;;;;5047335;28;20461;-60
2023/08/05 10:28:23;;;;;;;6.40;3.10;;;19.20;64.50;;;;;;5056075;28;20183;-59
2023/08/05 10:30:50;;;;;;;3.83;2.70;;;19.10;66.10;;;;;;5060115;28;20481;-60
2023/08/05 10:33:16;;;;;;;6.47;2.97;;;19.40;66.80;;;;;;5059692;28;20523;-59
2023/08/05 10:35:42;;;;;;;4.87;2.90;;;19.60;67.30;;;;;;5058274;28;20421;-61
2023/08/05 10:38:17;;;;;;;4.00;3.60;;;20.00;68.80;;;;;;5061385;28;20269;-60
2023/08/05 10:40:47;;;;;;;3.00;2.60;;;20.40;68.30;;;;;;5067875;28;20486;-60
2023/08/05 10:43:30;;;;;;;8.37;3.20;;;20.50;65.40;;;;;;5053698;28;20544;-58
2023/08/05 10:45:57;;;;;;;5.90;4.60;;;20.70;65.00;;;;;;5060612;28;20817;-60
2023/08/05 10:48:38;;;;;;;4.43;3.20;;;20.80;60.10;;;;;;5058694;28;20436;-59
2023/08/05 10:51:08;;;;;;;4.07;3.27;;;20.80;58.60;;;;;;5055771;28;20747;-60
2023/08/05 10:53:34;;;;;;;5.60;3.30;;;21.00;59.90;;;;;;5069310;28;20451;-57
2023/08/05 10:56:00;;;;;;;3.30;2.90;;;20.90;59.40;;;;;;5070992;28;20424;-58
2023/08/05 10:58:30;;;;;;;4.60;2.83;;;20.90;57.80;;;;;;5067909;28;20427;-57
2023/08/05 11:01:03;;;;;;;3.33;2.80;;;20.80;57.30;;;;;;5062419;28;20205;-58
2023/08/05 11:03:46;;;;;;;3.33;2.43;;;20.80;56.10;;;;;;5058636;28;20495;-61
2023/08/05 11:06:23;;;;;;;3.13;2.60;;;20.80;55.90;;;;;;5067881;28;20416;-61
2023/08/05 11:08:49;;;;;;;3.70;2.70;;;20.70;55.20;;;;;;5057180;28;21000;-60
2023/08/05 11:11:15;;;;;;;6.10;2.77;;;20.80;56.50;;;;;;5064200;28;20500;-59
2023/08/05 11:13:46;;;;;;;4.60;3.27;;;20.70;56.30;;;;;;5065083;28;20193;-60
2023/08/05 11:16:16;;;;;;;3.07;2.73;;;20.70;55.40;;;;;;5063072;28;20433;-59
2023/08/05 11:18:45;;;;;;;3.53;3.23;;;20.70;56.60;;;;;;5048327;28;20439;-59
2023/08/05 11:21:13;;;;;;;2.90;2.70;;;20.70;56.70;;;;;;5059719;28;20431;-58
2023/08/05 11:23:41;;;;;;;5.53;2.90;;;20.80;55.90;;;;;;5050090;28;20562;-58
2023/08/05 11:26:07;;;;;;;6.47;3.00;;;20.80;55.70;;;;;;5060699;28;20425;-59
2023/08/05 11:28:34;;;;;;;3.40;3.07;;;20.80;55.40;;;;;;5056495;28;20437;-57
2023/08/05 11:31:00;;;;;;;3.10;2.80;;;21.00;55.50;;;;;;5051412;28;20437;-62
2023/08/05 11:33:29;;;;;;;3.40;3.10;;;21.00;54.50;;;;;;5055678;28;20448;-56
2023/08/05 11:35:55;;;;;;;3.47;3.17;;;20.90;54.50;;;;;;5054827;28;20424;-57
2023/08/05 11:38:22;;;;;;;4.33;2.70;;;20.80;55.50;;;;;;5055679;28;21347;-57
2023/08/05 11:40:54;;;;;;;3.40;3.10;;;20.60;54.60;;;;;;5052478;28;20236;-56
2023/08/05 11:43:20;;;;;;;3.87;2.93;;;20.70;55.20;;;;;;5053477;28;20448;-58
2023/08/05 11:45:47;;;;;;;4.57;3.13;;;20.80;55.80;;;;;;5050043;28;20544;-57
2023/08/05 11:48:20;;;;;;;3.17;2.87;;;20.90;55.20;;;;;;5045945;28;20452;-56
2023/08/05 11:50:47;;;;;;;7.40;2.73;;;20.80;55.30;;;;;;5049015;28;20516;-57
2023/08/05 11:53:13;;;;;;;3.80;3.10;;;20.70;57.10;;;;;;5048068;28;20980;-58
2023/08/05 11:55:40;;;;;;;6.33;2.90;;;20.70;57.20;;;;;;5047620;28;20439;-57
2023/08/05 11:58:06;;;;;;;4.27;2.93;;;20.60;55.50;;;;;;5053752;28;20504;-56
2023/08/05 12:00:32;;;;;;;3.00;2.70;;;20.50;53.10;;;;;;5049103;28;20469;-57
2023/08/05 12:02:58;;;;;;;6.30;2.73;;;20.40;52.30;;;;;;5054629;28;20452;-57
2023/08/05 12:05:24;;;;;;;3.00;2.70;;;20.20;51.60;;;;;;5048983;28;20456;-59
2023/08/05 12:07:50;;;;;;;3.70;2.47;;;20.10;52.20;;;;;;5053414;28;20433;-58
2023/08/05 12:10:17;;;;;;;2.90;2.70;;;20.10;53.20;;;;;;5057040;28;20174;-59
2023/08/05 12:12:45;;;;;;;2.63;2.40;;;20.10;53.70;;;;;;5055930;28;20562;-56
2023/08/05 12:15:17;;;;;;;5.73;2.50;;;20.00;53.20;;;;;;5055265;28;20516;-55
2023/08/05 12:17:47;;;;;;;2.90;2.60;;;20.00;53.40;;;;;;5059991;28;20433;-57
2023/08/05 12:20:19;;;;;;;4.67;2.57;;;19.90;53.50;;;;;;5061080;28;20425;-57
2023/08/05 12:22:48;;;;;;;14.83;3.53;;;19.80;53.70;;;;;;5066272;28;20475;-57
2023/08/05 12:25:14;;;;;;;4.90;2.90;;;19.80;54.40;;;;;;5068869;28;20472;-58
2023/08/05 12:27:40;;;;;;;4.70;2.90;;;19.80;54.30;;;;;;5065820;28;20424;-58
2023/08/05 12:30:08;;;;;;;4.13;2.73;;;19.80;54.50;;;;;;5071877;28;20428;-58
2023/08/05 12:32:34;;;;;;;4.40;3.20;;;19.80;54.30;;;;;;5069827;28;20228;-57
2023/08/05 12:35:04;;;;;;;2.73;2.53;;;19.80;54.30;;;;;;5066097;28;21083;-58
2023/08/05 12:37:30;;;;;;;3.27;2.37;;;19.70;54.40;;;;;;5060711;28;20514;-58
2023/08/05 12:39:55;;;;;;;5.30;3.20;;;19.70;54.60;;;;;;5063128;28;20528;-58